createdAt,value
2022-11-20T00:01:25.120Z,99861.69
2022-11-20T00:03:53.976Z,99877.19
2022-11-20T00:06:22.913Z,99885.81
2022-11-20T00:08:50.674Z,99847.97
2022-11-20T00:11:23.437Z,99869.41
2022-11-20T00:13:53.666Z,99860.66
2022-11-20T00:16:24.264Z,99854.66
2022-11-20T00:18:52.918Z,99854.59
2022-11-20T00:21:25.924Z,99855.47
2022-11-20T00:23:55.684Z,99850.31
2022-11-20T00:26:25.014Z,99841.50
2022-11-20T00:28:56.126Z,99850.13
2022-11-20T00:31:24.050Z,99852.81
2022-11-20T00:33:51.753Z,99858.94
2022-11-20T00:36:21.889Z,99850.31
2022-11-20T00:38:53.575Z,99847.59
2022-11-20T00:41:21.499Z,99769.22
2022-11-20T00:43:48.841Z,99785.47
2022-11-20T00:46:19.242Z,99797.44
2022-11-20T00:48:47.261Z,99795.88
2022-11-20T00:51:17.648Z,99811.22
2022-11-20T00:53:45.865Z,99799.13
2022-11-20T00:56:16.061Z,99789.44
2022-11-20T00:58:45.280Z,99798.19
2022-11-20T01:01:21.362Z,99807.56
2022-11-20T01:03:51.065Z,99797.88
2022-11-20T01:06:24.139Z,99816.16
2022-11-20T01:08:54.682Z,99805.22
2022-11-20T01:11:30.796Z,99825.78
2022-11-20T01:13:59.781Z,99824.91
2022-11-20T01:16:30.237Z,99840.28
2022-11-20T01:18:59.717Z,99842.00
2022-11-20T01:21:35.844Z,99798.28
2022-11-20T01:24:04.985Z,99812.00
2022-11-20T01:26:34.624Z,99815.25
2022-11-20T01:29:03.272Z,99801.56
2022-11-20T01:31:39.669Z,99767.78
2022-11-20T01:34:10.809Z,99783.09
2022-11-20T01:36:39.301Z,99787.50
2022-11-20T01:39:11.157Z,99786.84
2022-11-20T01:41:57.286Z,99792.75
2022-11-20T01:44:48.284Z,99785.72
2022-11-20T01:47:38.230Z,99751.19
2022-11-20T01:50:11.296Z,99771.91
2022-11-20T01:52:44.026Z,99736.75
2022-11-20T01:55:19.001Z,99734.03
2022-11-20T01:57:47.970Z,99718.50
2022-11-20T02:00:17.979Z,99717.44
2022-11-20T02:02:47.783Z,99723.50
2022-11-20T02:05:42.097Z,99711.31
2022-11-20T02:08:09.663Z,99719.06
2022-11-20T02:10:37.021Z,99707.97
2022-11-20T02:13:23.298Z,99745.03
2022-11-20T02:15:50.768Z,99747.44
2022-11-20T02:18:20.809Z,99761.44
2022-11-20T02:20:51.503Z,99759.66
2022-11-20T02:23:34.524Z,99724.88
2022-11-20T02:26:06.132Z,99744.69
2022-11-20T02:28:33.809Z,99767.13
2022-11-20T02:31:02.340Z,99755.25
2022-11-20T02:33:29.799Z,99746.69
2022-11-20T02:35:57.102Z,99758.72
2022-11-20T02:38:24.547Z,99754.75
2022-11-20T02:40:55.503Z,99727.97
2022-11-20T02:43:24.473Z,99752.03
2022-11-20T02:45:51.893Z,99735.00
2022-11-20T02:48:19.193Z,99733.31
2022-11-20T02:50:46.506Z,99747.22
2022-11-20T02:53:13.809Z,99761.69
2022-11-20T02:55:41.188Z,99768.66
2022-11-20T02:58:08.601Z,99740.16
2022-11-20T03:00:36.516Z,99765.78
2022-11-20T03:03:03.893Z,99766.69
2022-11-20T03:05:31.172Z,99752.03
2022-11-20T03:07:58.462Z,99771.91
2022-11-20T03:10:25.912Z,99796.97
2022-11-20T03:12:56.778Z,99791.03
2022-11-20T03:15:24.891Z,99780.53
2022-11-20T03:17:56.705Z,99780.66
2022-11-20T03:20:24.318Z,99779.81
2022-11-20T03:22:51.685Z,99787.72
2022-11-20T03:25:18.980Z,99756.69
2022-11-20T03:27:46.329Z,99763.59
2022-11-20T03:30:14.442Z,99753.28
2022-11-20T03:32:41.876Z,99761.69
2022-11-20T03:35:09.778Z,99735.94
2022-11-20T03:37:37.038Z,99734.41
2022-11-20T03:40:05.133Z,99756.16
2022-11-20T03:42:47.454Z,99752.66
2022-11-20T03:45:17.891Z,99781.53
2022-11-20T03:47:45.869Z,99747.44
2022-11-20T03:50:14.903Z,99771.41
2022-11-20T03:52:42.821Z,99764.91
2022-11-20T03:55:10.719Z,99771.91
2022-11-20T03:57:37.998Z,99798.34
2022-11-20T04:00:06.453Z,99769.09
2022-11-20T04:02:33.762Z,99769.91
2022-11-20T04:05:01.104Z,99744.94
2022-11-20T04:07:28.392Z,99734.69
2022-11-20T04:09:55.678Z,99715.66
2022-11-20T04:12:22.970Z,99718.13
2022-11-20T04:14:50.264Z,99734.13
2022-11-20T04:17:17.653Z,99737.72
2022-11-20T04:19:44.878Z,99732.72
2022-11-20T04:22:13.210Z,99727.66
2022-11-20T04:24:40.493Z,99744.03
2022-11-20T04:27:07.838Z,99757.84
2022-11-20T04:29:35.173Z,99760.38
2022-11-20T04:32:02.530Z,99743.25
2022-11-20T04:34:29.906Z,99750.97
2022-11-20T04:36:57.291Z,99767.22
2022-11-20T04:39:24.778Z,99776.63
2022-11-20T04:42:14.959Z,99750.81
2022-11-20T04:44:42.269Z,99749.16
2022-11-20T04:47:09.556Z,99748.38
2022-11-20T04:49:37.002Z,99722.78
2022-11-20T04:52:04.385Z,99741.38
2022-11-20T04:54:31.685Z,99730.47
2022-11-20T04:56:59.068Z,99726.84
2022-11-20T04:59:26.368Z,99673.44
2022-11-20T05:01:53.946Z,99719.00
2022-11-20T05:04:21.288Z,99712.09
2022-11-20T05:06:49.034Z,99701.03
2022-11-20T05:09:16.446Z,99668.59
2022-11-20T05:11:44.843Z,99712.34
2022-11-20T05:14:14.489Z,99699.41
2022-11-20T05:16:41.959Z,99666.69
2022-11-20T05:19:09.716Z,99693.13
2022-11-20T05:21:36.993Z,99671.81
2022-11-20T05:24:04.405Z,99694.25
2022-11-20T05:26:31.671Z,99696.03
2022-11-20T05:28:59.014Z,99719.97
2022-11-20T05:31:27.992Z,99673.59
2022-11-20T05:33:57.122Z,99721.88
2022-11-20T05:36:24.860Z,99678.56
2022-11-20T05:38:55.520Z,99703.47
2022-11-20T05:41:26.090Z,99666.88
2022-11-20T05:43:53.496Z,99706.97
2022-11-20T05:46:27.920Z,99679.53
2022-11-20T05:48:56.760Z,99677.03
2022-11-20T05:51:24.515Z,99689.81
2022-11-20T05:53:51.994Z,99695.91
2022-11-20T05:56:21.408Z,99724.03
2022-11-20T05:58:49.983Z,99748.28
2022-11-20T06:01:21.553Z,99766.34
2022-11-20T06:03:51.412Z,99751.56
2022-11-20T06:06:19.936Z,99759.63
2022-11-20T06:08:48.108Z,99748.16
2022-11-20T06:11:17.187Z,99752.69
2022-11-20T06:13:45.520Z,99712.22
2022-11-20T06:16:15.343Z,99762.13
2022-11-20T06:18:42.714Z,99751.22
2022-11-20T06:21:18.861Z,99758.44
2022-11-20T06:23:47.487Z,99750.59
2022-11-20T06:26:25.002Z,99761.84
2022-11-20T06:28:53.840Z,99730.19
2022-11-20T06:31:24.197Z,99704.50
2022-11-20T06:33:51.957Z,99743.16
2022-11-20T06:36:22.399Z,99760.88
2022-11-20T06:38:50.039Z,99726.41
2022-11-20T06:41:20.040Z,99728.56
2022-11-20T06:43:47.233Z,99761.13
2022-11-20T06:46:18.585Z,99771.31
2022-11-20T06:48:46.639Z,99750.75
2022-11-20T06:51:13.978Z,99759.44
2022-11-20T06:53:41.605Z,99745.78
2022-11-20T06:56:09.591Z,99760.44
2022-11-20T06:58:37.902Z,99782.06
2022-11-20T07:01:11.260Z,99754.19
2022-11-20T07:03:39.544Z,99762.13
2022-11-20T07:06:07.534Z,99768.09
2022-11-20T07:08:35.572Z,99783.66
2022-11-20T07:11:05.795Z,99805.91
2022-11-20T07:13:33.321Z,99806.75
2022-11-20T07:16:02.520Z,99806.75
2022-11-20T07:18:30.087Z,99778.34
2022-11-20T07:21:00.526Z,99784.22
2022-11-20T07:23:27.813Z,99755.66
2022-11-20T07:25:55.110Z,99797.88
2022-11-20T07:28:22.465Z,99738.97
2022-11-20T07:30:54.001Z,99808.28
2022-11-20T07:33:21.513Z,99825.38
2022-11-20T07:35:48.828Z,99803.84
2022-11-20T07:38:16.179Z,99771.97
2022-11-20T07:40:43.540Z,99818.44
2022-11-20T07:43:10.833Z,99796.16
2022-11-20T07:45:38.188Z,99798.72
2022-11-20T07:48:05.733Z,99782.38
2022-11-20T07:50:33.045Z,99834.81
2022-11-20T07:53:06.953Z,99840.81
2022-11-20T07:55:34.568Z,99809.25
2022-11-20T07:58:01.967Z,99802.44
2022-11-20T08:00:29.370Z,99772.94
2022-11-20T08:02:56.778Z,99805.66
2022-11-20T08:05:24.299Z,99835.75
2022-11-20T08:07:51.658Z,99851.25
2022-11-20T08:10:19.373Z,99839.22
2022-11-20T08:13:14.278Z,99862.38
2022-11-20T08:15:41.942Z,99820.19
2022-11-20T08:21:05.005Z,99823.59
2022-11-20T08:23:32.731Z,99830.47
2022-11-20T08:26:00.204Z,99820.41
2022-11-20T08:28:27.561Z,99791.38
2022-11-20T08:31:02.081Z,99790.50
2022-11-20T08:33:29.982Z,99818.78
2022-11-20T08:36:02.049Z,99772.25
2022-11-20T08:38:30.175Z,99796.22
2022-11-20T08:41:20.235Z,99822.81
2022-11-20T08:43:47.581Z,99783.94
2022-11-20T08:46:14.889Z,99782.00
2022-11-20T08:48:42.339Z,99823.25
2022-11-20T08:51:10.248Z,99825.94
2022-11-20T08:53:37.624Z,99854.38
2022-11-20T08:56:05.302Z,99848.41
2022-11-20T08:58:48.835Z,99854.72
2022-11-20T09:01:21.776Z,99880.72
2022-11-20T09:03:49.222Z,99894.59
2022-11-20T09:06:16.668Z,99925.50
2022-11-20T09:08:44.226Z,99896.06
2022-11-20T09:11:12.218Z,99918.94
2022-11-20T09:13:39.533Z,99899.94
2022-11-20T09:16:09.430Z,99894.53
2022-11-20T09:18:38.325Z,99890.09
2022-11-20T09:21:08.209Z,99867.50
2022-11-20T09:23:36.616Z,99899.31
2022-11-20T09:26:21.951Z,99886.19
2022-11-20T09:28:52.868Z,99888.88
2022-11-20T09:31:27.227Z,99882.44
2022-11-20T09:33:54.543Z,99887.22
2022-11-20T09:36:21.992Z,99814.38
2022-11-20T09:38:49.870Z,99913.97
2022-11-20T09:41:17.093Z,99917.44
2022-11-20T09:43:53.368Z,99919.94
2022-11-20T09:46:54.500Z,99909.50
2022-11-20T09:49:41.960Z,99882.06
2022-11-20T09:52:30.723Z,99890.34
2022-11-20T09:54:58.589Z,99862.00
2022-11-20T09:57:41.663Z,99839.19
2022-11-20T10:00:14.107Z,99834.59
2022-11-20T10:02:56.570Z,99867.88
2022-11-20T10:05:32.847Z,99859.50
2022-11-20T10:08:00.338Z,99858.94
2022-11-20T10:10:43.810Z,99839.13
2022-11-20T10:13:36.267Z,99854.75
2022-11-20T10:16:22.183Z,99846.31
2022-11-20T10:19:01.201Z,99838.22
2022-11-20T10:21:39.301Z,99844.06
2022-11-20T10:24:44.163Z,99872.44
2022-11-20T10:27:30.273Z,99887.03
2022-11-20T10:30:10.733Z,99880.41
2022-11-20T10:32:42.117Z,99840.47
2022-11-20T10:35:36.235Z,99861.41
2022-11-20T10:38:27.289Z,99861.03
2022-11-20T10:41:20.409Z,99843.22
2022-11-20T10:43:49.276Z,99833.94
2022-11-20T10:46:23.877Z,99837.75
2022-11-20T10:48:52.360Z,99848.38
2022-11-20T10:51:32.053Z,99888.72
2022-11-20T10:54:14.075Z,99861.97
2022-11-20T10:56:49.862Z,99895.19
2022-11-20T10:59:56.324Z,99888.53
2022-11-20T11:02:32.045Z,99872.84
2022-11-20T11:05:09.168Z,99887.34
2022-11-20T11:07:41.243Z,99837.44
2022-11-20T11:10:23.803Z,99850.03
2022-11-20T11:12:51.138Z,99835.69
2022-11-20T11:15:39.150Z,99848.28
2022-11-20T11:18:10.412Z,99827.72
2022-11-20T11:20:38.767Z,99847.00
2022-11-20T11:23:06.090Z,99849.03
2022-11-20T11:25:36.378Z,99836.00
2022-11-20T11:28:06.518Z,99815.09
2022-11-20T11:30:44.680Z,99835.66
2022-11-20T11:33:19.645Z,99832.78
2022-11-20T11:35:59.511Z,99740.59
2022-11-20T11:38:37.403Z,99861.69
2022-11-20T11:41:07.031Z,99866.63
2022-11-20T11:43:55.292Z,99865.63
2022-11-20T11:46:33.407Z,99872.78
2022-11-20T11:49:09.894Z,99874.59
2022-11-20T11:51:48.672Z,99815.84
2022-11-20T11:54:25.025Z,99836.75
2022-11-20T11:56:53.946Z,99862.81
2022-11-20T11:59:31.390Z,99850.97
2022-11-20T12:02:03.888Z,99873.00
2022-11-20T12:04:56.079Z,99881.72
2022-11-20T12:07:45.569Z,99874.88
2022-11-20T12:10:35.930Z,99867.06
2022-11-20T12:13:11.344Z,99838.88
2022-11-20T12:15:45.370Z,99843.09
2022-11-20T12:18:18.589Z,99829.88
2022-11-20T12:21:13.851Z,99833.94
2022-11-20T12:24:03.977Z,99850.47
2022-11-20T12:26:58.282Z,99857.25
2022-11-20T12:29:53.064Z,99844.25
2022-11-20T12:32:23.047Z,99855.50
2022-11-20T12:35:11.587Z,99853.47
2022-11-20T12:38:13.041Z,99849.69
2022-11-20T12:40:55.498Z,99859.47
2022-11-20T12:43:43.880Z,99842.16
2022-11-20T12:46:39.201Z,99857.06
2022-11-20T12:49:25.415Z,99843.66
2022-11-20T12:52:17.484Z,99846.94
2022-11-20T12:55:26.392Z,99839.84
2022-11-20T12:58:05.448Z,99849.00
2022-11-20T13:00:35.497Z,99779.69
2022-11-20T13:03:21.505Z,99837.56
2022-11-20T13:06:11.185Z,99838.50
2022-11-20T13:08:41.633Z,99827.66
2022-11-20T13:11:32.048Z,99841.03
2022-11-20T13:13:59.273Z,99850.16
2022-11-20T13:16:42.637Z,99859.63
2022-11-20T13:19:14.136Z,99844.19
2022-11-20T13:21:47.673Z,99880.16
2022-11-20T13:24:21.265Z,99876.19
2022-11-20T13:26:48.785Z,99873.72
2022-11-20T13:29:20.363Z,99853.94
2022-11-20T13:31:49.038Z,99839.28
2022-11-20T13:34:27.668Z,99867.50
2022-11-20T13:36:57.465Z,99859.03
2022-11-20T13:39:29.816Z,99858.31
2022-11-20T13:42:00.566Z,99872.00
2022-11-20T13:44:36.566Z,99867.00
2022-11-20T13:47:04.197Z,99829.63
2022-11-20T13:49:45.149Z,99855.22
2022-11-20T13:52:31.591Z,99875.59
2022-11-20T13:55:20.967Z,99895.97
2022-11-20T13:58:22.812Z,99897.84
2022-11-20T14:01:01.883Z,99896.03
2022-11-20T14:03:59.120Z,99900.72
2022-11-20T14:06:32.685Z,99900.09
2022-11-20T14:09:01.042Z,99900.94
2022-11-20T14:11:32.231Z,99897.69
2022-11-20T14:14:16.274Z,99879.16
2022-11-20T14:16:46.548Z,99880.91
2022-11-20T14:19:22.972Z,99899.81
2022-11-20T14:22:07.041Z,99860.63
2022-11-20T14:24:34.397Z,99886.13
2022-11-20T14:27:02.757Z,99896.50
2022-11-20T14:29:36.133Z,99846.78
2022-11-20T14:32:04.718Z,99877.78
2022-11-20T14:34:38.270Z,99887.91
2022-11-20T14:37:16.556Z,99868.41
2022-11-20T14:39:51.853Z,99861.38
2022-11-20T14:42:25.576Z,99881.09
2022-11-20T14:44:57.357Z,99843.38
2022-11-20T14:47:28.212Z,99862.72
2022-11-20T14:49:57.882Z,99867.50
2022-11-20T14:52:28.047Z,99841.16
2022-11-20T14:55:00.404Z,99845.84
2022-11-20T14:57:29.280Z,99846.06
2022-11-20T15:00:27.626Z,99842.91
2022-11-20T15:02:55.093Z,99850.09
2022-11-20T15:05:26.299Z,99854.38
2022-11-20T15:08:14.478Z,99869.94
2022-11-20T15:10:52.542Z,99860.56
2022-11-20T15:13:35.660Z,99870.16
2022-11-20T15:16:04.507Z,99863.94
2022-11-20T15:18:42.589Z,99868.44
2022-11-20T15:21:18.704Z,99848.97
2022-11-20T15:23:46.122Z,99845.66
2022-11-20T15:26:19.915Z,99858.56
2022-11-20T15:28:51.027Z,99875.88
2022-11-20T15:31:23.793Z,99870.84
2022-11-20T15:33:51.462Z,99867.56
2022-11-20T15:36:18.964Z,99869.34
2022-11-20T15:38:46.593Z,99883.94
2022-11-20T15:41:14.019Z,99880.56
2022-11-20T15:43:41.314Z,99879.06
2022-11-20T15:46:15.045Z,99864.75
2022-11-20T15:48:50.165Z,99879.31
2022-11-20T15:51:37.057Z,99886.88
2022-11-20T15:54:12.707Z,99857.56
2022-11-20T15:56:40.066Z,99856.63
2022-11-20T15:59:07.943Z,99787.19
2022-11-20T16:01:35.611Z,99835.19
2022-11-20T16:04:03.226Z,99853.34
2022-11-20T16:06:30.618Z,99840.72
2022-11-20T16:08:57.898Z,99792.63
2022-11-20T16:11:25.228Z,99838.00
2022-11-20T16:14:11.269Z,99834.53
2022-11-20T16:16:41.394Z,99850.25
2022-11-20T16:19:13.021Z,99803.56
2022-11-20T16:21:42.551Z,99849.44
2022-11-20T16:24:13.867Z,99846.41
2022-11-20T16:26:42.225Z,99849.97
2022-11-20T16:29:10.985Z,99827.63
2022-11-20T16:31:39.053Z,99811.19
2022-11-20T16:34:12.249Z,99840.25
2022-11-20T16:36:42.218Z,99809.59
2022-11-20T16:39:09.926Z,99822.53
2022-11-20T16:41:37.385Z,99798.75
2022-11-20T16:44:09.570Z,99835.13
2022-11-20T16:46:37.361Z,99819.06
2022-11-20T16:49:07.323Z,99860.38
2022-11-20T16:51:35.697Z,99862.00
2022-11-20T16:54:07.551Z,99864.63
2022-11-20T16:56:35.161Z,99851.09
2022-11-20T16:59:03.450Z,99866.34
2022-11-20T17:01:31.830Z,99869.91
2022-11-20T17:04:01.551Z,99862.09
2022-11-20T17:06:37.617Z,99875.84
2022-11-20T17:09:05.285Z,99870.91
2022-11-20T17:11:33.609Z,99863.16
2022-11-20T17:14:04.756Z,99869.25
2022-11-20T17:16:32.216Z,99854.59
2022-11-20T17:19:03.413Z,99862.47
2022-11-20T17:21:32.938Z,99881.53
2022-11-20T17:24:03.258Z,99880.69
2022-11-20T17:26:31.164Z,99860.13
2022-11-20T17:29:04.863Z,99873.72
2022-11-20T17:31:34.251Z,99872.88
2022-11-20T17:34:02.425Z,99873.72
2022-11-20T17:36:30.490Z,99857.53
2022-11-20T17:38:58.649Z,99847.31
2022-11-20T17:41:28.168Z,99867.88
2022-11-20T17:43:57.707Z,99873.09
2022-11-20T17:46:27.575Z,99877.56
2022-11-20T17:48:56.455Z,99850.88
2022-11-20T17:51:27.942Z,99850.78
2022-11-20T17:54:01.508Z,99867.94
2022-11-20T17:56:51.670Z,99852.41
2022-11-20T17:59:19.623Z,99842.22
2022-11-20T18:01:47.460Z,99849.38
2022-11-20T18:04:15.079Z,99858.63
2022-11-20T18:06:42.963Z,99836.50
2022-11-20T18:09:10.587Z,99871.34
2022-11-20T18:11:41.971Z,99870.53
2022-11-20T18:14:32.542Z,99843.00
2022-11-20T18:17:05.110Z,99861.41
2022-11-20T18:19:55.690Z,99852.53
2022-11-20T18:22:31.065Z,99831.69
2022-11-20T18:24:58.511Z,99819.00
2022-11-20T18:27:25.877Z,99836.97
2022-11-20T18:29:53.351Z,99831.81
2022-11-20T18:32:22.266Z,99844.75
2022-11-20T18:34:50.609Z,99832.06
2022-11-20T18:37:17.981Z,99869.84
2022-11-20T18:39:45.660Z,99833.19
2022-11-20T18:42:33.878Z,99828.69
2022-11-20T18:45:04.341Z,99857.69
2022-11-20T18:47:37.280Z,99849.38
2022-11-20T18:50:06.889Z,99819.38
2022-11-20T18:52:39.259Z,99861.28
2022-11-20T18:55:07.889Z,99857.88
2022-11-20T18:57:35.774Z,99857.88
2022-11-20T19:00:08.883Z,99858.63
2022-11-20T19:02:43.012Z,99859.50
2022-11-20T19:05:12.384Z,99854.41
2022-11-20T19:07:39.799Z,99857.91
2022-11-20T19:10:08.036Z,99860.53
2022-11-20T19:12:35.342Z,99840.72
2022-11-20T19:15:02.823Z,99864.06
2022-11-20T19:17:30.098Z,99863.34
2022-11-20T19:19:57.841Z,99861.59
2022-11-20T19:22:25.269Z,99857.06
2022-11-20T19:24:52.777Z,99850.13
2022-11-20T19:27:20.330Z,99860.59
2022-11-20T19:29:48.244Z,99842.50
2022-11-20T19:32:16.582Z,99838.97
2022-11-20T19:34:44.112Z,99815.91
2022-11-20T19:37:11.608Z,99849.47
2022-11-20T19:39:39.328Z,99854.56
2022-11-20T19:42:07.131Z,99852.75
2022-11-20T19:44:34.968Z,99839.03
2022-11-20T19:47:04.548Z,99751.66
2022-11-20T19:49:32.333Z,99845.16
2022-11-20T19:51:59.925Z,99870.97
2022-11-20T19:54:27.646Z,99842.69
2022-11-20T19:56:55.189Z,99839.28
2022-11-20T19:59:22.922Z,99851.47
2022-11-20T20:01:50.611Z,99838.63
2022-11-20T20:04:18.153Z,99852.22
2022-11-20T20:06:45.744Z,99843.91
2022-11-20T20:09:13.321Z,99839.50
2022-11-20T20:11:44.456Z,99842.97
2022-11-20T20:14:14.970Z,99850.72
2022-11-20T20:16:42.917Z,99836.91
2022-11-20T20:19:16.678Z,99844.72
2022-11-20T20:21:44.368Z,99852.25
2022-11-20T20:24:12.169Z,99853.22
2022-11-20T20:26:39.738Z,99842.97
2022-11-20T20:29:07.077Z,99821.50
2022-11-20T20:31:34.819Z,99862.00
2022-11-20T20:34:03.530Z,99847.41
2022-11-20T20:36:30.946Z,99853.53
2022-11-20T20:39:07.941Z,99853.59
2022-11-20T20:41:35.198Z,99862.25
2022-11-20T20:44:21.217Z,99851.84
2022-11-20T20:46:52.198Z,99866.47
2022-11-20T20:49:19.556Z,99873.22
2022-11-20T20:51:46.854Z,99848.28
2022-11-20T20:54:14.325Z,99837.13
2022-11-20T20:56:41.721Z,99845.53
2022-11-20T20:59:09.133Z,99855.69
2022-11-20T21:01:36.548Z,99854.13
2022-11-20T21:04:03.945Z,99829.13
2022-11-20T21:06:31.304Z,99825.53
2022-11-20T21:08:58.798Z,99817.56
2022-11-20T21:11:26.152Z,99814.31
2022-11-20T21:13:53.601Z,99832.22
2022-11-20T21:16:22.526Z,99810.13
2022-11-20T21:18:49.975Z,99743.19
2022-11-20T21:21:36.943Z,99773.13
2022-11-20T21:24:04.653Z,99769.63
2022-11-20T21:26:32.053Z,99776.59
2022-11-20T21:28:59.402Z,99799.78
2022-11-20T21:31:27.034Z,99782.66
2022-11-20T21:33:56.442Z,99794.72
2022-11-20T21:36:27.209Z,99793.72
2022-11-20T21:38:55.902Z,99804.16
2022-11-20T21:41:24.925Z,99798.91
2022-11-20T21:44:23.626Z,99798.06
2022-11-20T21:46:42.885Z,99780.06
2022-11-20T21:49:10.908Z,99792.19
2022-11-20T21:51:38.354Z,99787.09
2022-11-20T21:54:05.819Z,99771.69
2022-11-20T21:56:33.300Z,99782.94
2022-11-20T21:59:00.589Z,99769.00
2022-11-20T22:01:30.494Z,99771.50
2022-11-20T22:04:00.643Z,99765.41
2022-11-20T22:06:33.074Z,99769.78
2022-11-20T22:09:01.766Z,99714.91
2022-11-20T22:11:29.372Z,99756.94
2022-11-20T22:14:15.130Z,99731.22
2022-11-20T22:16:42.497Z,99723.44
2022-11-20T22:19:09.950Z,99749.13
2022-11-20T22:21:39.443Z,99762.69
2022-11-20T22:24:06.914Z,99757.63
2022-11-20T22:26:40.273Z,99752.41
2022-11-20T22:29:12.621Z,99744.59
2022-11-20T22:31:40.162Z,99740.47
2022-11-20T22:34:11.245Z,99728.56
2022-11-20T22:36:39.537Z,99739.72
2022-11-20T22:39:07.142Z,99723.41
2022-11-20T22:41:34.557Z,99739.78
2022-11-20T22:44:04.947Z,99738.94
2022-11-20T22:46:34.717Z,99708.16
2022-11-20T22:49:04.717Z,99722.00
2022-11-20T22:51:35.207Z,99711.03
2022-11-20T22:54:03.668Z,99737.47
2022-11-20T22:56:32.990Z,99752.25
2022-11-20T22:59:00.436Z,99686.13
2022-11-20T23:01:33.473Z,99741.84
2022-11-20T23:04:03.325Z,99739.19
2022-11-20T23:06:30.854Z,99696.41
2022-11-20T23:08:58.297Z,99697.97
2022-11-20T23:11:30.133Z,99718.38
2022-11-20T23:14:02.966Z,99690.25
2022-11-20T23:16:31.615Z,99717.63
2022-11-20T23:19:01.331Z,99715.03
2022-11-20T23:21:28.851Z,99701.38
2022-11-20T23:23:57.761Z,99666.38
2022-11-20T23:26:30.747Z,99722.09
2022-11-20T23:28:59.575Z,99721.28
2022-11-20T23:31:29.368Z,99668.81
2022-11-20T23:33:57.208Z,99715.03
2022-11-20T23:36:24.609Z,99681.63
2022-11-20T23:38:51.942Z,99680.69
2022-11-20T23:41:19.311Z,99648.06
2022-11-20T23:43:46.560Z,99676.38
2022-11-20T23:46:16.694Z,99673.69
2022-11-20T23:48:45.460Z,99690.09
2022-11-20T23:51:13.259Z,99622.31
2022-11-20T23:53:40.790Z,99674.66
2022-11-20T23:56:09.406Z,99680.69
2022-11-20T23:58:38.520Z,99686.72
